Main page
METAR-TAF:

METAR-TAF

Airports :

St Mary's Airport

Isles of Scilly, England

latitude: 49-55N, longitude: 006-18W, elevation: 31 m

Current weather observation

The report was made 13 hours and 58 minutes ago, at 14:50 UTC
Wind 8 kt from the Southwest
Temperature 16°C
Humidity 100%
Pressure 1011 hPa
Visibility: 0400 m
fog

METAR: EGHE 181450Z 23008KT 0400 FG VV/// 16/16 Q1011

Time: 05:48 (04:48 UTC)

Forecast

The report was made 14 hours and 46 minutes ago, at 14:02 UTC
Forecast valid from 18 at 15 UTC to 18 at 18 UTC
Wind 14 kt from the Southwest
Visibility: 5000 m
Broken clouds at a height of 700 ft
mist
Temporary
from 18 at 15 UTC to 18 at 18 UTC
Visibility: 2000 m
light rain, drizzle
Probability 30% :
Temporary
from 18 at 15 UTC to 18 at 18 UTC
Visibility: 0300 m
fog

TAF: EGHE 181402Z 1815/1818 23014KT 5000 BR BKN007 TEMPO 1815/1818 2000 -RADZ PROB30 TEMPO 1815/1818 0300 FG VV///

Weather observations and forecasts of more than 4000 airports (METAR and TAF reports).

The available stations are represented by yellow and red dots on the map.

Hover mouse over dot to see the name of the station.

Then click to see weather observations and forecasts.

To change the map : click on the green buttons with a black cross to zoom in, on the green button with a dash to zoom out, or on the green arrows for adjacent maps.


METAR-TAF: